Time;durP1;ratioP1;P1;durP2;ratioP2;P2;SDS_P1;SDS_P2;PMS_P1;PMS_P2;Temp;Humidity;BMP_temperature;BMP_pressure;BME280_temperature;BME280_humidity;BME280_pressure;Samples;Min_cycle;Max_cycle;Signal;HPM_P1;HPM_P2
2022/10/26 00:01:34;;;;;;;;;;;;;13.82;97813.40;;;;108884;1269;41216;-56
2022/10/26 00:04:06;;;;;;;;;;;;;13.80;97817.00;;;;108912;1269;41475;-55
2022/10/26 00:06:36;;;;;;;;;;;;;13.80;97815.40;;;;108915;1269;42302;-55
2022/10/26 00:09:06;;;;;;;;;;;;;13.80;97816.00;;;;108928;1269;41449;-55
2022/10/26 00:11:35;;;;;;;;;;;;;13.80;97817.40;;;;108992;1268;41612;-55
2022/10/26 00:14:05;;;;;;;;;;;;;13.80;97811.60;;;;109040;1265;41150;-56
2022/10/26 00:16:35;;;;;;;;;;;;;13.78;97811.40;;;;109005;1269;41143;-56
2022/10/26 00:19:05;;;;;;;;;;;;;13.70;97801.40;;;;108976;1269;41243;-56
2022/10/26 00:21:35;;;;;;;;;;;;;13.60;97811.20;;;;108991;1269;41162;-56
2022/10/26 00:24:05;;;;;;;;;;;;;13.60;97818.00;;;;109004;1268;41145;-56
2022/10/26 00:26:35;;;;;;;;;;;;;13.60;97815.00;;;;109018;1269;41201;-54
2022/10/26 00:29:05;;;;;;;;;;;;;13.60;97821.20;;;;109003;1269;41530;-56
2022/10/26 00:31:35;;;;;;;;;;;;;13.60;97819.40;;;;109019;1269;41159;-56
2022/10/26 00:34:05;;;;;;;;;;;;;13.60;97823.80;;;;108949;1269;41137;-55
2022/10/26 00:36:34;;;;;;;;;;;;;13.60;97826.40;;;;108971;1269;41174;-56
2022/10/26 00:39:04;;;;;;;;;;;;;13.54;97826.00;;;;108952;1265;41263;-55
2022/10/26 00:41:34;;;;;;;;;;;;;13.50;97828.80;;;;108950;1269;41298;-58
2022/10/26 00:44:23;;;;;;;;;;;;;13.50;97832.40;;;;108970;1269;41139;-55
2022/10/26 00:46:52;;;;;;;;;;;;;13.50;97838.00;;;;108975;1260;41926;-55
2022/10/26 00:49:29;;;;;;;;;;;;;13.50;97841.20;;;;108857;1269;41158;-56
2022/10/26 00:51:57;;;;;;;;;;;;;13.50;97843.80;;;;108880;1269;41605;-56
2022/10/26 00:54:27;;;;;;;;;;;;;13.50;97836.00;;;;108706;1269;41252;-56
2022/10/26 00:56:58;;;;;;;;;;;;;13.50;97837.00;;;;108995;1269;41153;-56
2022/10/26 00:59:28;;;;;;;;;;;;;13.50;97835.60;;;;108981;1269;41150;-55
2022/10/26 01:02:00;;;;;;;;;;;;;13.50;97830.20;;;;109004;1263;41164;-56
2022/10/26 01:04:29;;;;;;;;;;;;;13.50;97834.00;;;;109012;1269;41143;-56
2022/10/26 01:07:03;;;;;;;;;;;;;13.50;97826.80;;;;108987;1269;41506;-56
2022/10/26 01:09:32;;;;;;;;;;;;;13.50;97826.60;;;;108973;1262;41150;-55
2022/10/26 01:12:02;;;;;;;;;;;;;13.50;97826.80;;;;108837;1265;41601;-56
2022/10/26 01:14:32;;;;;;;;;;;;;13.50;97822.60;;;;108965;1269;41410;-56
2022/10/26 01:17:08;;;;;;;;;;;;;13.40;97818.60;;;;108965;1269;41326;-55
2022/10/26 01:19:52;;;;;;;;;;;;;13.40;97820.00;;;;108990;1269;41137;-56
2022/10/26 01:22:20;;;;;;;;;;;;;13.40;97820.80;;;;108968;1269;41208;-55
2022/10/26 01:24:53;;;;;;;;;;;;;13.40;97820.40;;;;108958;1269;41164;-56
2022/10/26 01:27:24;;;;;;;;;;;;;13.40;97814.40;;;;108936;1269;41193;-56
2022/10/26 01:29:59;;;;;;;;;;;;;13.40;97818.60;;;;108973;1265;41156;-55
2022/10/26 01:32:37;;;;;;;;;;;;;13.40;97814.20;;;;108992;1269;41938;-55
2022/10/26 01:35:22;;;;;;;;;;;;;13.42;97811.80;;;;108981;1268;41147;-56
2022/10/26 01:38:03;;;;;;;;;;;;;13.50;97817.20;;;;108982;1269;41184;-56
2022/10/26 01:40:42;;;;;;;;;;;;;13.50;97811.40;;;;108942;1269;41150;-55
2022/10/26 01:43:11;;;;;;;;;;;;;13.50;97813.80;;;;108931;1269;41194;-56
2022/10/26 01:45:42;;;;;;;;;;;;;13.50;97823.80;;;;108964;1265;41148;-55
2022/10/26 01:48:12;;;;;;;;;;;;;13.50;97817.60;;;;109026;1269;41195;-55
2022/10/26 01:50:41;;;;;;;;;;;;;13.50;97817.00;;;;108819;1269;41149;-55
2022/10/26 01:53:11;;;;;;;;;;;;;13.50;97816.40;;;;108991;1269;41169;-55
2022/10/26 01:55:47;;;;;;;;;;;;;13.40;97816.60;;;;108954;1266;41371;-55
2022/10/26 01:58:22;;;;;;;;;;;;;13.40;97819.20;;;;108892;1257;42101;-56
2022/10/26 02:01:10;;;;;;;;;;;;;13.40;97815.00;;;;108828;1269;41929;-55
2022/10/26 02:03:45;;;;;;;;;;;;;13.40;97815.40;;;;108965;1268;41194;-56
2022/10/26 02:06:21;;;;;;;;;;;;;13.30;97815.40;;;;108962;1269;41239;-56
2022/10/26 02:08:57;;;;;;;;;;;;;13.30;97823.80;;;;108932;1269;41235;-56
2022/10/26 02:11:32;;;;;;;;;;;;;13.30;97824.00;;;;108957;1269;41198;-55
2022/10/26 02:14:07;;;;;;;;;;;;;13.30;97822.80;;;;108883;1269;41474;-55
2022/10/26 02:16:53;;;;;;;;;;;;;13.22;97825.20;;;;108989;1269;41629;-55
2022/10/26 02:19:32;;;;;;;;;;;;;13.20;97825.60;;;;108897;1269;41678;-55
2022/10/26 02:22:05;;;;;;;;;;;;;13.20;97825.40;;;;108950;1269;41387;-56
2022/10/26 02:24:35;;;;;;;;;;;;;13.20;97828.80;;;;108915;1263;41335;-56
2022/10/26 02:27:06;;;;;;;;;;;;;13.20;97826.60;;;;108919;1269;41218;-55
2022/10/26 02:29:35;;;;;;;;;;;;;13.20;97827.40;;;;108879;1269;41603;-56
2022/10/26 02:32:05;;;;;;;;;;;;;13.20;97832.60;;;;108805;1269;41143;-54
2022/10/26 02:34:35;;;;;;;;;;;;;13.20;97832.00;;;;108821;1269;41631;-54
2022/10/26 02:37:04;;;;;;;;;;;;;13.20;97836.80;;;;108790;1269;41161;-54
2022/10/26 02:39:34;;;;;;;;;;;;;13.20;97838.80;;;;108648;1270;41427;-54
2022/10/26 02:42:03;;;;;;;;;;;;;13.20;97844.40;;;;108939;1266;41173;-56
2022/10/26 02:44:35;;;;;;;;;;;;;13.12;97845.00;;;;108873;1269;41654;-56
2022/10/26 02:47:05;;;;;;;;;;;;;13.10;97845.80;;;;108902;1266;41141;-55
2022/10/26 02:49:36;;;;;;;;;;;;;13.10;97842.80;;;;108995;1269;41152;-56
2022/10/26 02:52:08;;;;;;;;;;;;;13.10;97843.00;;;;108973;1269;41151;-55
2022/10/26 02:54:38;;;;;;;;;;;;;13.10;97844.00;;;;108943;1269;42760;-55
2022/10/26 02:57:25;;;;;;;;;;;;;13.00;97845.60;;;;109021;1269;42151;-56
2022/10/26 02:59:55;;;;;;;;;;;;;13.00;97849.60;;;;108943;1269;41619;-55
2022/10/26 03:02:25;;;;;;;;;;;;;13.00;97851.40;;;;108749;1269;41226;-55
2022/10/26 03:04:54;;;;;;;;;;;;;13.00;97855.00;;;;108989;1269;41131;-56
2022/10/26 03:07:26;;;;;;;;;;;;;13.00;97854.80;;;;108900;1269;41169;-55
2022/10/26 03:09:55;;;;;;;;;;;;;13.00;97850.20;;;;108949;1269;41135;-55
2022/10/26 03:12:25;;;;;;;;;;;;;13.00;97852.20;;;;108889;1269;41931;-55
2022/10/26 03:14:55;;;;;;;;;;;;;13.00;97855.40;;;;108934;1262;41237;-57
2022/10/26 03:17:24;;;;;;;;;;;;;13.00;97854.20;;;;108939;1269;41615;-57
2022/10/26 03:19:54;;;;;;;;;;;;;13.00;97858.60;;;;108943;1266;42280;-56
2022/10/26 03:22:23;;;;;;;;;;;;;13.00;97855.00;;;;108978;1269;41141;-56
2022/10/26 03:24:53;;;;;;;;;;;;;12.92;97859.60;;;;108824;1269;41221;-56
2022/10/26 03:27:23;;;;;;;;;;;;;12.92;97863.40;;;;108799;1269;42002;-55
2022/10/26 03:29:52;;;;;;;;;;;;;12.90;97867.00;;;;108865;1269;41243;-56
2022/10/26 03:32:21;;;;;;;;;;;;;12.90;97862.00;;;;108993;1269;41145;-55
2022/10/26 03:34:51;;;;;;;;;;;;;12.84;97864.80;;;;109027;1269;41278;-56
2022/10/26 03:37:20;;;;;;;;;;;;;12.80;97870.00;;;;108982;1268;41896;-56
2022/10/26 03:39:49;;;;;;;;;;;;;12.80;97874.20;;;;108990;1268;41145;-55
2022/10/26 03:42:18;;;;;;;;;;;;;12.70;97872.20;;;;108919;1269;41406;-56
2022/10/26 03:44:48;;;;;;;;;;;;;12.70;97870.60;;;;108979;1269;41842;-55
2022/10/26 03:47:17;;;;;;;;;;;;;12.70;97871.60;;;;108895;1269;41933;-56
2022/10/26 03:49:46;;;;;;;;;;;;;12.70;97871.00;;;;108865;1269;41388;-56
2022/10/26 03:52:16;;;;;;;;;;;;;12.70;97875.20;;;;108969;1269;41156;-56
2022/10/26 03:54:46;;;;;;;;;;;;;12.70;97872.00;;;;108952;1269;41161;-56
2022/10/26 03:57:15;;;;;;;;;;;;;12.72;97872.40;;;;108967;1269;41325;-55
2022/10/26 03:59:44;;;;;;;;;;;;;12.72;97877.60;;;;108873;1269;41255;-55
2022/10/26 04:02:14;;;;;;;;;;;;;12.72;97879.60;;;;108992;1269;41197;-56
2022/10/26 04:04:42;;;;;;;;;;;;;12.74;97882.80;;;;108904;1269;41479;-56
2022/10/26 04:07:12;;;;;;;;;;;;;12.78;97885.60;;;;108909;1269;41917;-55
2022/10/26 04:09:41;;;;;;;;;;;;;12.78;97889.40;;;;108907;1269;41149;-55
2022/10/26 04:12:11;;;;;;;;;;;;;12.70;97887.80;;;;108952;1269;41939;-55
2022/10/26 04:14:39;;;;;;;;;;;;;12.70;97888.80;;;;108956;1269;41679;-55
2022/10/26 04:17:08;;;;;;;;;;;;;12.60;97885.20;;;;108924;1269;41143;-56
2022/10/26 04:19:37;;;;;;;;;;;;;12.60;97884.00;;;;108854;1269;41277;-55
2022/10/26 04:22:06;;;;;;;;;;;;;12.58;97885.20;;;;108984;1269;42185;-56
2022/10/26 04:24:35;;;;;;;;;;;;;12.60;97885.00;;;;108951;1269;41174;-55
2022/10/26 04:27:05;;;;;;;;;;;;;12.60;97890.00;;;;108989;1269;41612;-55
2022/10/26 04:29:34;;;;;;;;;;;;;12.60;97884.60;;;;108945;1269;41259;-55
2022/10/26 04:32:03;;;;;;;;;;;;;12.60;97886.60;;;;108848;1269;41953;-56
2022/10/26 04:34:32;;;;;;;;;;;;;12.60;97886.20;;;;108851;1269;41147;-55
2022/10/26 04:37:01;;;;;;;;;;;;;12.70;97893.40;;;;108993;1269;41868;-55
2022/10/26 04:39:29;;;;;;;;;;;;;12.70;97888.00;;;;109008;1269;41251;-55
2022/10/26 04:41:58;;;;;;;;;;;;;12.70;97891.20;;;;109000;1269;41137;-55
2022/10/26 04:44:27;;;;;;;;;;;;;12.70;97892.80;;;;108965;1262;41157;-56
2022/10/26 04:46:55;;;;;;;;;;;;;12.68;97895.80;;;;108872;1266;41972;-56
2022/10/26 04:49:24;;;;;;;;;;;;;12.60;97901.20;;;;108882;1269;41709;-54
2022/10/26 04:51:52;;;;;;;;;;;;;12.70;97901.20;;;;108891;1265;41161;-55
2022/10/26 04:54:21;;;;;;;;;;;;;12.70;97901.80;;;;108799;1269;41161;-55
2022/10/26 04:56:50;;;;;;;;;;;;;12.70;97904.80;;;;108840;1267;41700;-56
2022/10/26 04:59:19;;;;;;;;;;;;;12.70;97908.40;;;;108933;1269;41901;-55
2022/10/26 05:01:48;;;;;;;;;;;;;12.70;97912.40;;;;108997;1269;42380;-55
2022/10/26 05:04:17;;;;;;;;;;;;;12.70;97918.80;;;;109010;1269;41604;-55
2022/10/26 05:06:45;;;;;;;;;;;;;12.70;97922.80;;;;108894;1269;41237;-56
2022/10/26 05:09:13;;;;;;;;;;;;;12.70;97923.20;;;;108980;1269;41892;-55
2022/10/26 05:11:42;;;;;;;;;;;;;12.70;97927.40;;;;108909;1269;41618;-55
2022/10/26 05:14:11;;;;;;;;;;;;;12.70;97932.60;;;;108965;1268;41187;-55
2022/10/26 05:16:40;;;;;;;;;;;;;12.70;97935.00;;;;108966;1268;41237;-55
2022/10/26 05:19:08;;;;;;;;;;;;;12.70;97932.20;;;;108983;1269;41638;-55
2022/10/26 05:21:37;;;;;;;;;;;;;12.78;97934.40;;;;108976;1269;41153;-56
2022/10/26 05:24:06;;;;;;;;;;;;;12.80;97937.60;;;;108841;1269;41147;-55
2022/10/26 05:26:38;;;;;;;;;;;;;12.80;97939.60;;;;108783;1269;41282;-56
2022/10/26 05:29:07;;;;;;;;;;;;;12.80;97937.60;;;;109021;1261;41633;-56
2022/10/26 05:31:35;;;;;;;;;;;;;12.80;97935.20;;;;108965;1269;41149;-55
2022/10/26 05:34:04;;;;;;;;;;;;;12.88;97936.20;;;;108940;1269;41535;-55
2022/10/26 05:36:32;;;;;;;;;;;;;12.90;97939.20;;;;108974;1269;41132;-56
2022/10/26 05:39:01;;;;;;;;;;;;;12.90;97942.00;;;;108975;1269;41935;-55
2022/10/26 05:41:30;;;;;;;;;;;;;12.90;97947.80;;;;108956;1266;41163;-55
2022/10/26 05:43:58;;;;;;;;;;;;;12.90;97946.60;;;;108918;1269;41147;-56
2022/10/26 05:46:26;;;;;;;;;;;;;12.90;97950.80;;;;109035;1269;41481;-55
2022/10/26 05:48:55;;;;;;;;;;;;;12.90;97957.20;;;;108982;1266;40813;-56
2022/10/26 05:51:24;;;;;;;;;;;;;13.00;97962.80;;;;108867;1269;41238;-56
2022/10/26 05:53:53;;;;;;;;;;;;;13.00;97961.60;;;;108855;1269;41888;-55
2022/10/26 05:56:33;;;;;;;;;;;;;13.00;97967.00;;;;108895;1269;41632;-55
2022/10/26 05:59:02;;;;;;;;;;;;;13.00;97972.00;;;;108637;1262;41674;-56
2022/10/26 06:01:49;;;;;;;;;;;;;13.00;97975.00;;;;108970;1265;41670;-56
2022/10/26 06:04:24;;;;;;;;;;;;;13.10;97980.80;;;;108909;1269;41244;-56
2022/10/26 06:06:53;;;;;;;;;;;;;13.00;97986.80;;;;108975;1269;42220;-56
2022/10/26 06:09:22;;;;;;;;;;;;;13.00;97981.80;;;;108974;1269;42711;-55
2022/10/26 06:11:51;;;;;;;;;;;;;13.00;97981.40;;;;108959;1269;42403;-55
2022/10/26 06:14:19;;;;;;;;;;;;;13.00;97990.60;;;;108985;1269;41618;-56
2022/10/26 06:17:00;;;;;;;;;;;;;13.00;97993.20;;;;108955;1266;41240;-56
2022/10/26 06:19:32;;;;;;;;;;;;;13.00;97991.80;;;;108975;1269;41932;-56
2022/10/26 06:22:21;;;;;;;;;;;;;13.00;98000.20;;;;108969;1266;41603;-57
2022/10/26 06:24:56;;;;;;;;;;;;;12.98;98004.40;;;;108993;1269;41645;-56
2022/10/26 06:27:30;;;;;;;;;;;;;12.90;98002.60;;;;108938;1269;41233;-56
2022/10/26 06:30:06;;;;;;;;;;;;;12.90;98001.00;;;;108968;1269;41390;-56
2022/10/26 06:32:34;;;;;;;;;;;;;12.80;98007.80;;;;108935;1269;41188;-56
2022/10/26 06:35:22;;;;;;;;;;;;;12.80;98013.40;;;;108892;1269;41163;-56
2022/10/26 06:37:50;;;;;;;;;;;;;12.88;98011.60;;;;108953;1269;41237;-55
2022/10/26 06:40:19;;;;;;;;;;;;;12.80;98019.20;;;;108891;1269;41595;-56
2022/10/26 06:42:47;;;;;;;;;;;;;12.80;98021.20;;;;108971;1268;41145;-56
2022/10/26 06:45:17;;;;;;;;;;;;;12.80;98018.60;;;;109018;1268;41227;-56
2022/10/26 06:47:51;;;;;;;;;;;;;12.88;98019.40;;;;108942;1269;41136;-56
2022/10/26 06:50:38;;;;;;;;;;;;;12.90;98021.40;;;;109010;1269;41145;-56
2022/10/26 06:53:07;;;;;;;;;;;;;13.00;98026.80;;;;108918;1269;41153;-56
2022/10/26 06:55:39;;;;;;;;;;;;;13.00;98030.00;;;;108975;1266;41880;-56
2022/10/26 06:58:15;;;;;;;;;;;;;12.98;98031.80;;;;108821;1265;42388;-56
2022/10/26 07:00:44;;;;;;;;;;;;;12.94;98030.20;;;;109007;1269;41140;-56
2022/10/26 07:03:12;;;;;;;;;;;;;13.00;98028.60;;;;108898;1269;41156;-56
2022/10/26 07:05:41;;;;;;;;;;;;;13.00;98027.40;;;;108970;1269;41489;-56
2022/10/26 07:08:09;;;;;;;;;;;;;13.04;98028.40;;;;108999;1268;41147;-57
2022/10/26 07:10:38;;;;;;;;;;;;;13.10;98028.20;;;;108911;1269;41138;-56
2022/10/26 07:13:07;;;;;;;;;;;;;13.20;98029.40;;;;108799;1269;41165;-55
2022/10/26 07:15:36;;;;;;;;;;;;;13.30;98032.60;;;;108814;1270;42064;-55
2022/10/26 07:18:05;;;;;;;;;;;;;13.40;98030.40;;;;108737;1260;41370;-55
2022/10/26 07:20:35;;;;;;;;;;;;;13.50;98036.00;;;;108813;1269;41227;-55
2022/10/26 07:23:05;;;;;;;;;;;;;13.60;98026.20;;;;108736;1269;41159;-56
2022/10/26 07:25:37;;;;;;;;;;;;;13.70;98018.00;;;;108896;1269;41608;-56
2022/10/26 07:28:08;;;;;;;;;;;;;13.90;98014.00;;;;108761;1269;285418;-56
2022/10/26 07:30:38;;;;;;;;;;;;;14.20;98012.00;;;;108971;1269;41140;-55
2022/10/26 07:33:11;;;;;;;;;;;;;14.50;98003.20;;;;108972;1265;41477;-56
2022/10/26 07:35:40;;;;;;;;;;;;;14.90;97997.40;;;;109015;1266;41931;-56
2022/10/26 07:38:08;;;;;;;;;;;;;15.30;97998.60;;;;108989;1259;41502;-56
2022/10/26 07:40:37;;;;;;;;;;;;;15.60;97994.20;;;;108981;1269;42330;-56
2022/10/26 07:43:05;;;;;;;;;;;;;15.80;97993.60;;;;108946;1269;42413;-56
2022/10/26 07:45:35;;;;;;;;;;;;;16.10;97996.60;;;;109004;1262;41201;-56
2022/10/26 07:48:04;;;;;;;;;;;;;16.40;97998.80;;;;108987;1269;41398;-56
2022/10/26 07:50:32;;;;;;;;;;;;;16.66;98008.20;;;;108951;1269;41146;-56
2022/10/26 07:53:01;;;;;;;;;;;;;16.98;98008.40;;;;108962;1269;41155;-56
2022/10/26 07:55:30;;;;;;;;;;;;;17.10;98004.40;;;;108915;1268;41229;-56
2022/10/26 07:57:59;;;;;;;;;;;;;16.92;98011.60;;;;108953;1265;42058;-55
2022/10/26 08:00:28;;;;;;;;;;;;;16.52;98017.40;;;;108925;1269;41633;-56
2022/10/26 08:02:56;;;;;;;;;;;;;16.30;98015.40;;;;108963;1269;41620;-56
2022/10/26 08:05:25;;;;;;;;;;;;;16.20;98022.80;;;;108906;1269;41621;-56
2022/10/26 08:07:53;;;;;;;;;;;;;16.20;98020.80;;;;108970;1269;41329;-56
2022/10/26 08:10:21;;;;;;;;;;;;;16.20;98021.40;;;;108940;1269;41970;-57
2022/10/26 08:12:51;;;;;;;;;;;;;16.20;98025.60;;;;108947;1269;41649;-56
2022/10/26 08:15:19;;;;;;;;;;;;;16.10;98023.20;;;;109002;1269;41680;-56
2022/10/26 08:17:48;;;;;;;;;;;;;16.06;98024.20;;;;109014;1271;41141;-56
2022/10/26 08:20:16;;;;;;;;;;;;;16.10;98018.00;;;;108856;1269;41231;-57
2022/10/26 08:22:45;;;;;;;;;;;;;16.30;98012.00;;;;108888;1269;41924;-57
2022/10/26 08:25:13;;;;;;;;;;;;;16.46;98016.40;;;;108847;1269;41898;-56
2022/10/26 08:27:44;;;;;;;;;;;;;16.80;98020.20;;;;108911;1269;41270;-55
2022/10/26 08:30:13;;;;;;;;;;;;;17.10;98025.00;;;;108821;1269;41240;-55
2022/10/26 08:32:42;;;;;;;;;;;;;17.20;98026.80;;;;108723;1271;42021;-55
2022/10/26 08:35:11;;;;;;;;;;;;;17.20;98028.20;;;;108744;1269;41697;-55
2022/10/26 08:37:39;;;;;;;;;;;;;17.18;98032.20;;;;108921;1271;41922;-56
2022/10/26 08:40:09;;;;;;;;;;;;;17.12;98037.00;;;;108937;1269;42284;-55
2022/10/26 08:42:39;;;;;;;;;;;;;17.20;98040.60;;;;108942;1268;41805;-57
2022/10/26 08:45:17;;;;;;;;;;;;;17.20;98038.80;;;;108880;1269;41131;-57
2022/10/26 08:47:46;;;;;;;;;;;;;17.20;98044.00;;;;108938;1269;41165;-57
2022/10/26 08:50:23;;;;;;;;;;;;;17.20;98044.20;;;;108966;1269;41278;-56
2022/10/26 08:52:54;;;;;;;;;;;;;17.06;98044.20;;;;108942;1269;41400;-56
2022/10/26 08:55:25;;;;;;;;;;;;;17.00;98050.20;;;;108918;1269;41737;-57
2022/10/26 08:57:53;;;;;;;;;;;;;17.00;98052.60;;;;108931;1269;41643;-56
2022/10/26 09:00:22;;;;;;;;;;;;;17.00;98058.20;;;;108933;1269;41231;-55
2022/10/26 09:02:52;;;;;;;;;;;;;16.90;98057.80;;;;108942;1266;41161;-56
2022/10/26 09:05:27;;;;;;;;;;;;;16.80;98058.20;;;;108993;1269;41148;-56
2022/10/26 09:08:03;;;;;;;;;;;;;16.80;98059.80;;;;108953;1269;42298;-56
2022/10/26 09:10:41;;;;;;;;;;;;;16.80;98055.00;;;;108886;1269;41593;-56
2022/10/26 09:13:38;;;;;;;;;;;;;16.88;98057.60;;;;108869;1269;41217;-56
2022/10/26 09:16:12;;;;;;;;;;;;;17.00;98059.20;;;;108309;1271;41168;-56
2022/10/26 09:18:40;;;;;;;;;;;;;17.10;98062.20;;;;108859;1269;41236;-56
2022/10/26 09:21:08;;;;;;;;;;;;;17.20;98058.40;;;;108819;1269;41856;-56
2022/10/26 09:23:37;;;;;;;;;;;;;17.34;98057.20;;;;108908;1265;41628;-57
2022/10/26 09:26:08;;;;;;;;;;;;;17.50;98059.00;;;;108745;1269;41143;-57
2022/10/26 09:28:36;;;;;;;;;;;;;17.60;98052.40;;;;108966;1265;41148;-57
2022/10/26 09:31:05;;;;;;;;;;;;;17.70;98051.20;;;;108761;1269;41948;-56
2022/10/26 09:33:34;;;;;;;;;;;;;17.72;98049.20;;;;108729;1266;41802;-56
2022/10/26 09:36:05;;;;;;;;;;;;;18.14;98036.60;;;;108902;1266;41789;-56
2022/10/26 09:38:35;;;;;;;;;;;;;19.38;98032.00;;;;108768;1270;41501;-56
2022/10/26 09:41:04;;;;;;;;;;;;;20.82;98029.80;;;;108728;1269;41497;-56
2022/10/26 09:43:36;;;;;;;;;;;;;22.28;98021.80;;;;108929;1266;41148;-56
2022/10/26 09:46:05;;;;;;;;;;;;;23.40;98019.20;;;;108993;1266;41200;-57
2022/10/26 09:49:03;;;;;;;;;;;;;24.00;98028.40;;;;108825;1269;41175;-57
2022/10/26 09:51:33;;;;;;;;;;;;;23.80;98037.80;;;;108729;1269;41160;-57
2022/10/26 09:54:04;;;;;;;;;;;;;23.50;98038.00;;;;108888;1266;41144;-57
2022/10/26 09:56:32;;;;;;;;;;;;;23.30;98040.20;;;;108947;1269;41577;-57
2022/10/26 09:59:02;;;;;;;;;;;;;23.20;98045.20;;;;108893;1266;42573;-57
2022/10/26 10:01:31;;;;;;;;;;;;;23.10;98045.00;;;;109009;1269;42018;-57
2022/10/26 10:04:13;;;;;;;;;;;;;23.10;98043.80;;;;108869;1269;41615;-57
2022/10/26 10:06:45;;;;;;;;;;;;;23.00;98050.40;;;;108827;1269;41265;-57
2022/10/26 10:09:13;;;;;;;;;;;;;22.80;98054.40;;;;108728;1271;42407;-57
2022/10/26 10:11:43;;;;;;;;;;;;;22.30;98053.60;;;;108635;1269;41244;-57
2022/10/26 10:14:16;;;;;;;;;;;;;21.68;98055.80;;;;108717;1269;41266;-57
2022/10/26 10:16:55;;;;;;;;;;;;;21.20;98059.80;;;;108730;1266;41151;-57
2022/10/26 10:19:24;;;;;;;;;;;;;20.84;98065.00;;;;108729;1271;41609;-57
2022/10/26 10:21:54;;;;;;;;;;;;;20.60;98064.40;;;;108964;1266;41837;-57
2022/10/26 10:24:32;;;;;;;;;;;;;20.50;98065.60;;;;108962;1269;41148;-57
2022/10/26 10:27:03;;;;;;;;;;;;;20.50;98069.40;;;;108971;1271;41148;-57
2022/10/26 10:29:33;;;;;;;;;;;;;20.40;98068.00;;;;108919;1267;41922;-57
2022/10/26 10:32:02;;;;;;;;;;;;;20.30;98068.80;;;;108937;1271;41593;-57
2022/10/26 10:34:31;;;;;;;;;;;;;20.30;98068.00;;;;108971;1270;41148;-56
2022/10/26 10:37:00;;;;;;;;;;;;;20.20;98064.40;;;;108960;1270;42424;-56
2022/10/26 10:39:35;;;;;;;;;;;;;20.14;98065.20;;;;109001;1270;41229;-57
2022/10/26 10:42:04;;;;;;;;;;;;;20.10;98067.20;;;;108966;1271;43107;-57
2022/10/26 10:44:32;;;;;;;;;;;;;20.00;98060.80;;;;108940;1271;41979;-57
2022/10/26 10:47:01;;;;;;;;;;;;;20.46;98050.80;;;;108942;1270;42840;-57
2022/10/26 10:49:30;;;;;;;;;;;;;21.54;98054.40;;;;108963;1266;41931;-57
2022/10/26 10:51:58;;;;;;;;;;;;;22.00;98053.60;;;;108912;1270;41298;-56
2022/10/26 10:54:37;;;;;;;;;;;;;22.22;98055.40;;;;108965;1270;41148;-57
2022/10/26 10:57:08;;;;;;;;;;;;;22.10;98059.20;;;;108756;1265;41247;-57
2022/10/26 10:59:36;;;;;;;;;;;;;21.60;98061.20;;;;108810;1271;41615;-57
2022/10/26 11:02:04;;;;;;;;;;;;;21.32;98065.80;;;;108863;1271;41151;-57
2022/10/26 11:04:36;;;;;;;;;;;;;21.40;98062.80;;;;108898;1271;41131;-57
2022/10/26 11:07:05;;;;;;;;;;;;;21.50;98052.00;;;;108718;1270;41147;-55
2022/10/26 11:09:35;;;;;;;;;;;;;21.98;98054.20;;;;108641;1263;41245;-55
2022/10/26 11:12:13;;;;;;;;;;;;;22.20;98059.00;;;;108781;1265;41580;-56
2022/10/26 11:14:44;;;;;;;;;;;;;22.10;98055.00;;;;108993;1271;41154;-57
2022/10/26 11:17:18;;;;;;;;;;;;;22.64;98054.60;;;;108941;1270;41170;-57
2022/10/26 11:19:56;;;;;;;;;;;;;23.24;98047.40;;;;108857;1271;41140;-57
2022/10/26 11:22:33;;;;;;;;;;;;;24.18;98052.80;;;;108860;1270;42062;-56
2022/10/26 11:25:03;;;;;;;;;;;;;24.60;98056.80;;;;108889;1271;41692;-56
2022/10/26 11:27:40;;;;;;;;;;;;;24.32;98058.60;;;;108996;1270;41132;-57
2022/10/26 11:30:19;;;;;;;;;;;;;23.78;98057.60;;;;108902;1270;41602;-56
2022/10/26 11:32:49;;;;;;;;;;;;;23.18;98061.80;;;;108910;1271;41172;-56
2022/10/26 11:35:20;;;;;;;;;;;;;22.42;98062.40;;;;108834;1271;41632;-55
2022/10/26 11:38:00;;;;;;;;;;;;;22.34;98049.20;;;;108743;1265;41552;-55
2022/10/26 11:40:29;;;;;;;;;;;;;23.48;98044.20;;;;108812;1265;41274;-56
2022/10/26 11:43:09;;;;;;;;;;;;;24.72;98037.80;;;;108971;1266;41956;-56
2022/10/26 11:45:39;;;;;;;;;;;;;26.20;98036.80;;;;108930;1270;41162;-57
2022/10/26 11:48:20;;;;;;;;;;;;;27.38;98032.00;;;;108959;1270;41178;-57
2022/10/26 11:50:56;;;;;;;;;;;;;28.60;98042.20;;;;108948;1271;41926;-56
2022/10/26 11:53:29;;;;;;;;;;;;;28.22;98041.60;;;;108918;1271;42200;-57
2022/10/26 11:55:57;;;;;;;;;;;;;27.24;98042.00;;;;108919;1271;41598;-56
2022/10/26 11:58:26;;;;;;;;;;;;;26.38;98048.80;;;;108787;1271;42460;-57
2022/10/26 12:01:02;;;;;;;;;;;;;25.68;98051.00;;;;108850;1266;41142;-57
2022/10/26 12:03:31;;;;;;;;;;;;;25.12;98044.20;;;;108962;1270;41148;-58
2022/10/26 12:06:00;;;;;;;;;;;;;24.72;98051.60;;;;108872;1270;41147;-57
2022/10/26 12:08:31;;;;;;;;;;;;;24.44;98056.80;;;;108985;1266;41673;-58
2022/10/26 12:11:03;;;;;;;;;;;;;24.20;98050.40;;;;108831;1271;41933;-56
2022/10/26 12:13:36;;;;;;;;;;;;;24.58;98052.00;;;;108857;1269;42717;-57
2022/10/26 12:16:10;;;;;;;;;;;;;25.00;98048.00;;;;108915;1271;41270;-57
2022/10/26 12:18:46;;;;;;;;;;;;;25.20;98049.00;;;;108940;1270;41159;-57
2022/10/26 12:21:24;;;;;;;;;;;;;25.10;98057.60;;;;108922;1271;41182;-57
2022/10/26 12:23:53;;;;;;;;;;;;;25.48;98048.00;;;;108799;1270;42228;-57
2022/10/26 12:26:22;;;;;;;;;;;;;25.88;98050.60;;;;108683;1270;41158;-56
2022/10/26 12:29:03;;;;;;;;;;;;;26.26;98053.40;;;;108693;1271;41204;-57
2022/10/26 12:31:31;;;;;;;;;;;;;26.44;98058.20;;;;108746;1261;41207;-56
2022/10/26 12:34:01;;;;;;;;;;;;;26.70;98070.00;;;;108798;1271;41249;-56
2022/10/26 12:36:49;;;;;;;;;;;;;26.66;98063.00;;;;108957;1270;41197;-57
2022/10/26 12:39:29;;;;;;;;;;;;;26.22;98070.80;;;;108931;1271;41697;-56
2022/10/26 12:42:03;;;;;;;;;;;;;25.64;98079.20;;;;108858;1269;40746;-56
2022/10/26 12:44:52;;;;;;;;;;;;;25.16;98080.80;;;;109035;1270;41147;-57
2022/10/26 12:47:26;;;;;;;;;;;;;24.64;98088.80;;;;108960;1271;41304;-56
2022/10/26 12:50:18;;;;;;;;;;;;;24.40;98089.60;;;;108786;1271;41148;-57
2022/10/26 12:52:48;;;;;;;;;;;;;24.20;98092.60;;;;108875;1270;41173;-56
2022/10/26 12:55:20;;;;;;;;;;;;;23.80;98096.40;;;;108826;1270;41154;-56
2022/10/26 12:57:49;;;;;;;;;;;;;23.80;98093.20;;;;108890;1271;41163;-57
2022/10/26 13:00:17;;;;;;;;;;;;;23.60;98089.40;;;;108911;1270;41728;-57
2022/10/26 13:03:01;;;;;;;;;;;;;23.42;98095.80;;;;108975;1270;41840;-57
2022/10/26 13:05:32;;;;;;;;;;;;;23.20;98097.60;;;;108924;1271;41162;-56
2022/10/26 13:08:08;;;;;;;;;;;;;23.30;98085.80;;;;108921;1270;41804;-57
2022/10/26 13:10:37;;;;;;;;;;;;;23.68;98088.60;;;;108921;1271;41168;-57
2022/10/26 13:13:06;;;;;;;;;;;;;24.30;98088.60;;;;108922;1270;41613;-56
2022/10/26 13:15:38;;;;;;;;;;;;;25.16;98079.60;;;;108862;1268;42056;-56
2022/10/26 13:18:08;;;;;;;;;;;;;26.20;98081.60;;;;108937;1271;41639;-57
2022/10/26 13:20:49;;;;;;;;;;;;;27.06;98076.40;;;;108892;1270;41169;-57
2022/10/26 13:23:20;;;;;;;;;;;;;27.88;98073.60;;;;108856;1265;41155;-57
2022/10/26 13:26:02;;;;;;;;;;;;;28.62;98077.60;;;;108904;1270;41673;-57
2022/10/26 13:28:30;;;;;;;;;;;;;29.24;98078.00;;;;108823;1270;42255;-56
2022/10/26 13:30:59;;;;;;;;;;;;;29.76;98075.60;;;;108858;1270;41576;-56
2022/10/26 13:33:37;;;;;;;;;;;;;30.20;98073.80;;;;108926;1269;42402;-56
2022/10/26 13:36:10;;;;;;;;;;;;;30.50;98074.20;;;;108939;1270;41163;-57
2022/10/26 13:38:39;;;;;;;;;;;;;30.60;98073.00;;;;108948;1271;42313;-56
2022/10/26 13:41:11;;;;;;;;;;;;;30.30;98071.80;;;;108852;1270;41402;-57
2022/10/26 13:43:39;;;;;;;;;;;;;30.20;98073.60;;;;108968;1271;41497;-57
2022/10/26 13:46:12;;;;;;;;;;;;;30.30;98073.00;;;;108850;1271;41143;-56
2022/10/26 13:48:40;;;;;;;;;;;;;30.30;98072.80;;;;108901;1270;42311;-56
2022/10/26 13:51:18;;;;;;;;;;;;;30.26;98074.00;;;;108581;1271;41606;-56
2022/10/26 13:53:49;;;;;;;;;;;;;30.04;98076.40;;;;108716;1271;41619;-56